Decoded Metar for KEUF ( in _UNIDENTIFIED) (IATA:N/A) | Meteo·Mobile Aviation Weather
aviador You're here:

KEUF Decoded Metar

in _UNIDENTIFIED
Report Time2018-12-17 07:58:00
UTC Time2018-12-17 08:26:27
Flight Rules vfr VFR
Wind300° at 04 kt
W.Decomp.*RWY 36: 2.2 kt HW 3.3 kt LCW
W.Rank300° ranks 11
Current wind is below 300° avg. (5.3)
Visibility9999 m
Phenomena:N/A
Clouds:N/A
Expected CloudBase > 800 ft AGL from Temp-Dew spread
CeilingNone
Temp10°C (ISA -4)
Dew Point08°C (88% RH)
AAT8.1°C
QNH1022 hPa
Density Alt-404 ft
Elevation285 ft
Report Wrong Elevation
Raw Report
METAR KEUF 170758Z AUTO 30004KT 10SM CLR 10/08 A3017 RMK AO2 SLP214
T01000083=

Extra information for KEUF:More info

Metar Taf Metar & Taf Last 4 Metars F.Rules Stats Wind Profile Meteogram Temp Stats Metar ALERT Operation Metar Decoded Social comments